sensor_id;sensor_type;location;lat;lon;timestamp;temperature;humidity
70593;DHT22;58294;42.988;20.338;2022-12-10T00:01:16;204.90;2252.80
70593;DHT22;58294;42.988;20.338;2022-12-10T00:03:42;204.90;2252.80
70593;DHT22;58294;42.988;20.338;2022-12-10T00:06:12;204.90;2252.80
70593;DHT22;58294;42.988;20.338;2022-12-10T00:08:39;204.90;2252.80
70593;DHT22;58294;42.988;20.338;2022-12-10T00:11:08;204.90;2252.80
70593;DHT22;58294;42.988;20.338;2022-12-10T00:13:35;204.90;2252.80
70593;DHT22;58294;42.988;20.338;2022-12-10T00:16:02;204.90;2252.80
70593;DHT22;58294;42.988;20.338;2022-12-10T00:18:29;204.90;2252.80
70593;DHT22;58294;42.988;20.338;2022-12-10T00:20:55;205.00;2252.80
70593;DHT22;58294;42.988;20.338;2022-12-10T00:23:21;205.00;2252.80
70593;DHT22;58294;42.988;20.338;2022-12-10T00:25:46;205.00;2252.80
70593;DHT22;58294;42.988;20.338;2022-12-10T00:28:13;205.00;2252.80
70593;DHT22;58294;42.988;20.338;2022-12-10T00:30:39;204.90;2252.80
70593;DHT22;58294;42.988;20.338;2022-12-10T00:33:04;204.90;2252.80
70593;DHT22;58294;42.988;20.338;2022-12-10T00:35:30;204.90;2252.80
70593;DHT22;58294;42.988;20.338;2022-12-10T00:37:56;205.00;2252.80
70593;DHT22;58294;42.988;20.338;2022-12-10T00:40:22;205.10;2252.80
70593;DHT22;58294;42.988;20.338;2022-12-10T00:42:48;205.20;2252.80
70593;DHT22;58294;42.988;20.338;2022-12-10T00:45:14;205.20;2252.80
70593;DHT22;58294;42.988;20.338;2022-12-10T00:47:40;205.20;2252.80
70593;DHT22;58294;42.988;20.338;2022-12-10T00:50:06;205.30;2252.80
70593;DHT22;58294;42.988;20.338;2022-12-10T00:52:32;205.30;2252.80
70593;DHT22;58294;42.988;20.338;2022-12-10T00:54:57;205.40;2252.80
70593;DHT22;58294;42.988;20.338;2022-12-10T00:57:23;205.40;2252.80
70593;DHT22;58294;42.988;20.338;2022-12-10T00:59:49;205.40;2252.80
70593;DHT22;58294;42.988;20.338;2022-12-10T01:02:15;205.50;2252.80
70593;DHT22;58294;42.988;20.338;2022-12-10T01:04:40;205.50;2252.80
70593;DHT22;58294;42.988;20.338;2022-12-10T01:07:06;205.60;2252.80
70593;DHT22;58294;42.988;20.338;2022-12-10T01:09:32;205.60;2252.80
70593;DHT22;58294;42.988;20.338;2022-12-10T01:12:01;205.60;2252.80
70593;DHT22;58294;42.988;20.338;2022-12-10T01:14:29;205.60;2252.80
70593;DHT22;58294;42.988;20.338;2022-12-10T01:17:02;205.60;2252.80
70593;DHT22;58294;42.988;20.338;2022-12-10T01:19:29;205.70;2252.80
70593;DHT22;58294;42.988;20.338;2022-12-10T01:21:56;230.40;2252.80
70593;DHT22;58294;42.988;20.338;2022-12-10T01:24:24;230.40;2252.80
70593;DHT22;58294;42.988;20.338;2022-12-10T01:26:49;230.50;2252.80
70593;DHT22;58294;42.988;20.338;2022-12-10T01:29:16;230.50;2252.80
70593;DHT22;58294;42.988;20.338;2022-12-10T01:31:42;230.50;2252.80
70593;DHT22;58294;42.988;20.338;2022-12-10T01:34:11;230.50;2252.80
70593;DHT22;58294;42.988;20.338;2022-12-10T01:36:39;230.50;2252.80
70593;DHT22;58294;42.988;20.338;2022-12-10T01:39:07;230.50;2252.80
70593;DHT22;58294;42.988;20.338;2022-12-10T01:41:40;230.50;2252.80
70593;DHT22;58294;42.988;20.338;2022-12-10T01:46:37;230.60;2252.80
70593;DHT22;58294;42.988;20.338;2022-12-10T01:49:09;230.60;2252.80
70593;DHT22;58294;42.988;20.338;2022-12-10T01:51:38;230.70;2252.80
70593;DHT22;58294;42.988;20.338;2022-12-10T01:54:13;230.70;2252.80
70593;DHT22;58294;42.988;20.338;2022-12-10T01:56:43;230.70;2252.80
70593;DHT22;58294;42.988;20.338;2022-12-10T01:59:09;230.70;2252.80
70593;DHT22;58294;42.988;20.338;2022-12-10T02:07:00;230.80;2252.80
70593;DHT22;58294;42.988;20.338;2022-12-10T02:12:11;230.80;2252.80
70593;DHT22;58294;42.988;20.338;2022-12-10T02:17:47;230.80;2252.80
70593;DHT22;58294;42.988;20.338;2022-12-10T02:20:30;230.90;2252.80
70593;DHT22;58294;42.988;20.338;2022-12-10T02:23:08;230.90;2252.80
70593;DHT22;58294;42.988;20.338;2022-12-10T02:31:18;231.00;2252.80
70593;DHT22;58294;42.988;20.338;2022-12-10T02:33:51;231.00;2252.80
70593;DHT22;58294;42.988;20.338;2022-12-10T02:36:20;231.00;2252.80
70593;DHT22;58294;42.988;20.338;2022-12-10T02:38:49;231.00;2252.80
70593;DHT22;58294;42.988;20.338;2022-12-10T02:41:37;231.10;2252.80
70593;DHT22;58294;42.988;20.338;2022-12-10T02:44:09;231.10;2252.80
70593;DHT22;58294;42.988;20.338;2022-12-10T02:46:37;231.10;2252.80
70593;DHT22;58294;42.988;20.338;2022-12-10T02:49:06;231.10;2252.80
70593;DHT22;58294;42.988;20.338;2022-12-10T02:51:31;231.10;2252.80
70593;DHT22;58294;42.988;20.338;2022-12-10T02:54:05;231.10;2252.80
70593;DHT22;58294;42.988;20.338;2022-12-10T02:56:39;231.20;2252.80
70593;DHT22;58294;42.988;20.338;2022-12-10T02:59:28;231.20;2252.80
70593;DHT22;58294;42.988;20.338;2022-12-10T03:04:39;231.20;2252.80
70593;DHT22;58294;42.988;20.338;2022-12-10T03:07:12;231.20;2252.80
70593;DHT22;58294;42.988;20.338;2022-12-10T03:09:51;231.30;2252.80
70593;DHT22;58294;42.988;20.338;2022-12-10T03:12:41;231.30;2252.80
70593;DHT22;58294;42.988;20.338;2022-12-10T03:15:09;231.30;2252.80
70593;DHT22;58294;42.988;20.338;2022-12-10T03:17:38;231.20;2252.80
70593;DHT22;58294;42.988;20.338;2022-12-10T03:20:08;231.30;2252.80
70593;DHT22;58294;42.988;20.338;2022-12-10T03:22:39;231.30;2252.80
70593;DHT22;58294;42.988;20.338;2022-12-10T03:25:07;231.30;2252.80
70593;DHT22;58294;42.988;20.338;2022-12-10T03:27:34;256.00;2252.80
70593;DHT22;58294;42.988;20.338;2022-12-10T03:30:03;256.00;2252.80
70593;DHT22;58294;42.988;20.338;2022-12-10T03:32:29;256.00;2252.80
70593;DHT22;58294;42.988;20.338;2022-12-10T03:34:57;256.00;2252.80
70593;DHT22;58294;42.988;20.338;2022-12-10T03:37:25;256.00;2252.80
70593;DHT22;58294;42.988;20.338;2022-12-10T03:39:52;256.00;2252.80
70593;DHT22;58294;42.988;20.338;2022-12-10T03:42:18;256.10;2252.80
70593;DHT22;58294;42.988;20.338;2022-12-10T03:44:44;256.00;2252.80
70593;DHT22;58294;42.988;20.338;2022-12-10T03:47:12;256.10;2252.80
70593;DHT22;58294;42.988;20.338;2022-12-10T03:49:41;256.10;2252.80
70593;DHT22;58294;42.988;20.338;2022-12-10T03:52:07;256.10;2252.80
70593;DHT22;58294;42.988;20.338;2022-12-10T03:54:33;256.10;2252.80
70593;DHT22;58294;42.988;20.338;2022-12-10T03:56:58;256.00;2252.80
70593;DHT22;58294;42.988;20.338;2022-12-10T03:59:24;256.10;2252.80
70593;DHT22;58294;42.988;20.338;2022-12-10T04:01:50;256.20;2252.80
70593;DHT22;58294;42.988;20.338;2022-12-10T04:04:16;256.20;2252.80
70593;DHT22;58294;42.988;20.338;2022-12-10T04:06:42;256.20;2252.80
70593;DHT22;58294;42.988;20.338;2022-12-10T04:09:12;256.30;2252.80
70593;DHT22;58294;42.988;20.338;2022-12-10T04:11:38;256.30;2252.80
70593;DHT22;58294;42.988;20.338;2022-12-10T04:14:04;256.30;2252.80
70593;DHT22;58294;42.988;20.338;2022-12-10T04:16:48;256.30;2252.80
70593;DHT22;58294;42.988;20.338;2022-12-10T04:19:16;256.30;2252.80
70593;DHT22;58294;42.988;20.338;2022-12-10T04:21:44;256.40;2252.80
70593;DHT22;58294;42.988;20.338;2022-12-10T04:24:31;256.30;2252.80
70593;DHT22;58294;42.988;20.338;2022-12-10T04:27:25;256.40;2252.80
70593;DHT22;58294;42.988;20.338;2022-12-10T04:29:52;256.40;2252.80
70593;DHT22;58294;42.988;20.338;2022-12-10T04:32:19;256.40;2252.80
70593;DHT22;58294;42.988;20.338;2022-12-10T04:34:45;256.40;2252.80
70593;DHT22;58294;42.988;20.338;2022-12-10T04:37:12;256.50;2252.80
70593;DHT22;58294;42.988;20.338;2022-12-10T04:39:39;256.40;2252.80
70593;DHT22;58294;42.988;20.338;2022-12-10T04:42:05;256.50;2252.80
70593;DHT22;58294;42.988;20.338;2022-12-10T04:44:31;256.50;2252.80
70593;DHT22;58294;42.988;20.338;2022-12-10T04:46:57;256.60;2252.80
70593;DHT22;58294;42.988;20.338;2022-12-10T04:49:23;256.60;2252.80
70593;DHT22;58294;42.988;20.338;2022-12-10T04:51:50;256.60;2252.80
70593;DHT22;58294;42.988;20.338;2022-12-10T04:54:16;256.50;2252.80
70593;DHT22;58294;42.988;20.338;2022-12-10T04:56:42;256.50;2252.80
70593;DHT22;58294;42.988;20.338;2022-12-10T04:59:09;256.60;2252.80
70593;DHT22;58294;42.988;20.338;2022-12-10T05:01:35;256.50;2252.80
70593;DHT22;58294;42.988;20.338;2022-12-10T05:04:04;256.50;2252.80
70593;DHT22;58294;42.988;20.338;2022-12-10T05:06:31;256.60;2252.80
70593;DHT22;58294;42.988;20.338;2022-12-10T05:08:57;256.60;2252.80
70593;DHT22;58294;42.988;20.338;2022-12-10T05:11:24;256.60;2252.80
70593;DHT22;58294;42.988;20.338;2022-12-10T05:13:52;256.60;2252.80
70593;DHT22;58294;42.988;20.338;2022-12-10T05:16:19;256.60;2252.80
70593;DHT22;58294;42.988;20.338;2022-12-10T05:18:45;256.60;2252.80
70593;DHT22;58294;42.988;20.338;2022-12-10T05:21:13;256.60;2252.80
70593;DHT22;58294;42.988;20.338;2022-12-10T05:23:42;256.60;2252.80
70593;DHT22;58294;42.988;20.338;2022-12-10T05:26:11;256.60;2252.80
70593;DHT22;58294;42.988;20.338;2022-12-10T05:28:46;256.60;2252.80
70593;DHT22;58294;42.988;20.338;2022-12-10T05:31:21;256.60;2252.80
70593;DHT22;58294;42.988;20.338;2022-12-10T05:33:47;256.60;2252.80
70593;DHT22;58294;42.988;20.338;2022-12-10T05:36:15;256.60;2252.80
70593;DHT22;58294;42.988;20.338;2022-12-10T05:38:42;256.60;2252.80
70593;DHT22;58294;42.988;20.338;2022-12-10T05:41:16;256.50;2252.80
70593;DHT22;58294;42.988;20.338;2022-12-10T05:43:43;256.60;2252.80
70593;DHT22;58294;42.988;20.338;2022-12-10T05:46:13;256.50;2252.80
70593;DHT22;58294;42.988;20.338;2022-12-10T05:48:40;256.60;2252.80
70593;DHT22;58294;42.988;20.338;2022-12-10T05:51:08;256.60;2252.80
70593;DHT22;58294;42.988;20.338;2022-12-10T05:53:34;256.60;2252.80
70593;DHT22;58294;42.988;20.338;2022-12-10T05:56:02;256.60;2252.80
70593;DHT22;58294;42.988;20.338;2022-12-10T05:58:28;256.60;2252.80
70593;DHT22;58294;42.988;20.338;2022-12-10T06:00:58;256.60;2252.80
70593;DHT22;58294;42.988;20.338;2022-12-10T06:03:26;256.60;2252.80
70593;DHT22;58294;42.988;20.338;2022-12-10T06:05:52;256.70;2252.80
70593;DHT22;58294;42.988;20.338;2022-12-10T06:08:18;256.60;2252.80
70593;DHT22;58294;42.988;20.338;2022-12-10T06:10:44;256.70;2252.80
70593;DHT22;58294;42.988;20.338;2022-12-10T06:13:10;256.70;2252.80
70593;DHT22;58294;42.988;20.338;2022-12-10T06:15:39;256.70;2252.80
70593;DHT22;58294;42.988;20.338;2022-12-10T06:18:04;256.80;2252.80
70593;DHT22;58294;42.988;20.338;2022-12-10T06:20:30;256.80;2252.80
70593;DHT22;58294;42.988;20.338;2022-12-10T06:22:57;256.80;2252.80
70593;DHT22;58294;42.988;20.338;2022-12-10T06:25:23;256.80;2252.80
70593;DHT22;58294;42.988;20.338;2022-12-10T06:27:48;256.90;2252.80
70593;DHT22;58294;42.988;20.338;2022-12-10T06:30:14;256.90;2252.80
70593;DHT22;58294;42.988;20.338;2022-12-10T06:32:40;256.90;2252.80
70593;DHT22;58294;42.988;20.338;2022-12-10T06:35:09;256.90;2252.80
70593;DHT22;58294;42.988;20.338;2022-12-10T06:37:35;256.90;2252.80
70593;DHT22;58294;42.988;20.338;2022-12-10T06:40:01;256.90;2252.80
70593;DHT22;58294;42.988;20.338;2022-12-10T06:42:27;256.80;2252.80
70593;DHT22;58294;42.988;20.338;2022-12-10T06:44:53;256.90;2252.80
70593;DHT22;58294;42.988;20.338;2022-12-10T06:47:18;281.60;2278.40
70593;DHT22;58294;42.988;20.338;2022-12-10T06:49:44;281.60;2278.40
70593;DHT22;58294;42.988;20.338;2022-12-10T06:52:10;281.60;2278.40
70593;DHT22;58294;42.988;20.338;2022-12-10T06:54:36;281.60;2278.40
70593;DHT22;58294;42.988;20.338;2022-12-10T06:57:02;281.70;2278.40
70593;DHT22;58294;42.988;20.338;2022-12-10T06:59:27;281.70;2278.40
70593;DHT22;58294;42.988;20.338;2022-12-10T07:01:53;281.70;2278.40
70593;DHT22;58294;42.988;20.338;2022-12-10T07:04:19;281.80;2278.40
70593;DHT22;58294;42.988;20.338;2022-12-10T07:06:45;281.80;2278.40
70593;DHT22;58294;42.988;20.338;2022-12-10T07:09:10;281.80;2278.40
70593;DHT22;58294;42.988;20.338;2022-12-10T07:11:36;281.80;2278.40
70593;DHT22;58294;42.988;20.338;2022-12-10T07:14:03;281.80;2278.40
70593;DHT22;58294;42.988;20.338;2022-12-10T07:16:31;281.90;2278.40
70593;DHT22;58294;42.988;20.338;2022-12-10T07:18:59;281.90;2278.40
70593;DHT22;58294;42.988;20.338;2022-12-10T07:21:28;281.90;2278.40
70593;DHT22;58294;42.988;20.338;2022-12-10T07:23:56;281.90;2278.40
70593;DHT22;58294;42.988;20.338;2022-12-10T07:26:24;281.80;2278.40
70593;DHT22;58294;42.988;20.338;2022-12-10T07:28:51;281.90;2278.40
70593;DHT22;58294;42.988;20.338;2022-12-10T07:31:16;281.90;2278.40
70593;DHT22;58294;42.988;20.338;2022-12-10T07:33:42;282.00;2278.40
70593;DHT22;58294;42.988;20.338;2022-12-10T07:36:10;282.10;2278.40
70593;DHT22;58294;42.988;20.338;2022-12-10T07:38:36;282.10;2278.40
70593;DHT22;58294;42.988;20.338;2022-12-10T07:41:05;282.10;2278.40
70593;DHT22;58294;42.988;20.338;2022-12-10T07:43:36;282.20;2278.40
70593;DHT22;58294;42.988;20.338;2022-12-10T07:46:10;282.20;2278.40
70593;DHT22;58294;42.988;20.338;2022-12-10T07:48:37;282.20;2278.40
70593;DHT22;58294;42.988;20.338;2022-12-10T07:51:04;282.20;2278.40
70593;DHT22;58294;42.988;20.338;2022-12-10T07:53:31;282.20;2278.40
70593;DHT22;58294;42.988;20.338;2022-12-10T07:55:57;282.30;2278.40
70593;DHT22;58294;42.988;20.338;2022-12-10T07:58:22;282.30;2278.40
70593;DHT22;58294;42.988;20.338;2022-12-10T08:00:48;282.40;2278.40
70593;DHT22;58294;42.988;20.338;2022-12-10T08:03:14;282.40;2278.40
70593;DHT22;58294;42.988;20.338;2022-12-10T08:05:40;282.50;2278.40
70593;DHT22;58294;42.988;20.338;2022-12-10T08:08:06;307.20;2304.00
70593;DHT22;58294;42.988;20.338;2022-12-10T08:10:36;307.30;2304.00
70593;DHT22;58294;42.988;20.338;2022-12-10T08:13:03;307.40;2304.00
70593;DHT22;58294;42.988;20.338;2022-12-10T08:15:29;307.40;2304.00
70593;DHT22;58294;42.988;20.338;2022-12-10T08:17:55;307.40;2304.00
70593;DHT22;58294;42.988;20.338;2022-12-10T08:20:21;307.50;2304.00
70593;DHT22;58294;42.988;20.338;2022-12-10T08:22:47;307.60;2304.00
70593;DHT22;58294;42.988;20.338;2022-12-10T08:25:13;307.60;2304.00
70593;DHT22;58294;42.988;20.338;2022-12-10T08:27:39;307.70;2304.00
70593;DHT22;58294;42.988;20.338;2022-12-10T08:30:05;307.70;2304.00
70593;DHT22;58294;42.988;20.338;2022-12-10T08:32:31;307.70;2304.00
70593;DHT22;58294;42.988;20.338;2022-12-10T08:34:57;307.80;2304.00
70593;DHT22;58294;42.988;20.338;2022-12-10T08:37:23;307.90;2304.00
70593;DHT22;58294;42.988;20.338;2022-12-10T08:39:49;307.90;2304.00
70593;DHT22;58294;42.988;20.338;2022-12-10T08:42:15;308.00;2304.00
70593;DHT22;58294;42.988;20.338;2022-12-10T08:44:40;308.00;2304.00
70593;DHT22;58294;42.988;20.338;2022-12-10T08:47:06;332.80;2329.60
70593;DHT22;58294;42.988;20.338;2022-12-10T08:49:32;308.10;2304.00
70593;DHT22;58294;42.988;20.338;2022-12-10T08:51:58;332.80;2329.60
70593;DHT22;58294;42.988;20.338;2022-12-10T08:54:24;332.90;2329.60
70593;DHT22;58294;42.988;20.338;2022-12-10T08:56:49;333.00;2329.60
70593;DHT22;58294;42.988;20.338;2022-12-10T08:59:16;333.00;2329.60
70593;DHT22;58294;42.988;20.338;2022-12-10T09:01:42;333.00;2329.60
70593;DHT22;58294;42.988;20.338;2022-12-10T09:04:07;333.20;2329.60
70593;DHT22;58294;42.988;20.338;2022-12-10T09:06:33;333.20;2329.60
70593;DHT22;58294;42.988;20.338;2022-12-10T09:09:00;333.30;2329.60
70593;DHT22;58294;42.988;20.338;2022-12-10T09:11:32;333.40;2329.60
70593;DHT22;58294;42.988;20.338;2022-12-10T09:13:59;333.50;2329.60
70593;DHT22;58294;42.988;20.338;2022-12-10T09:16:42;333.60;2329.60
70593;DHT22;58294;42.988;20.338;2022-12-10T09:19:09;333.70;2329.60
70593;DHT22;58294;42.988;20.338;2022-12-10T09:21:35;333.70;2329.60
70593;DHT22;58294;42.988;20.338;2022-12-10T09:24:01;358.40;2329.60
70593;DHT22;58294;42.988;20.338;2022-12-10T09:26:27;358.40;2329.60
70593;DHT22;58294;42.988;20.338;2022-12-10T09:28:53;358.50;2329.60
70593;DHT22;58294;42.988;20.338;2022-12-10T09:31:20;358.60;2329.60
70593;DHT22;58294;42.988;20.338;2022-12-10T09:33:48;358.70;2329.60
70593;DHT22;58294;42.988;20.338;2022-12-10T09:36:14;358.70;2329.60
70593;DHT22;58294;42.988;20.338;2022-12-10T09:38:42;358.90;2329.60
70593;DHT22;58294;42.988;20.338;2022-12-10T09:41:31;358.90;2329.60
70593;DHT22;58294;42.988;20.338;2022-12-10T09:47:06;359.10;2329.60
70593;DHT22;58294;42.988;20.338;2022-12-10T09:50:01;359.20;2329.60
70593;DHT22;58294;42.988;20.338;2022-12-10T09:52:37;359.30;2329.60
70593;DHT22;58294;42.988;20.338;2022-12-10T09:55:15;359.30;2329.60
70593;DHT22;58294;42.988;20.338;2022-12-10T09:57:45;384.10;2329.60
70593;DHT22;58294;42.988;20.338;2022-12-10T10:00:29;384.10;2329.60
70593;DHT22;58294;42.988;20.338;2022-12-10T10:05:29;384.20;2329.60
70593;DHT22;58294;42.988;20.338;2022-12-10T10:10:51;384.40;2329.60
70593;DHT22;58294;42.988;20.338;2022-12-10T10:15:50;384.60;2329.60
70593;DHT22;58294;42.988;20.338;2022-12-10T10:20:49;384.70;2329.60
70593;DHT22;58294;42.988;20.338;2022-12-10T10:25:43;384.90;2329.60
70593;DHT22;58294;42.988;20.338;2022-12-10T10:30:44;409.60;2355.20
70593;DHT22;58294;42.988;20.338;2022-12-10T10:33:12;409.60;2355.20
70593;DHT22;58294;42.988;20.338;2022-12-10T10:35:45;409.60;2355.20
70593;DHT22;58294;42.988;20.338;2022-12-10T10:38:22;409.70;2355.20
70593;DHT22;58294;42.988;20.338;2022-12-10T10:40:55;409.70;2355.20
70593;DHT22;58294;42.988;20.338;2022-12-10T10:43:40;409.60;2355.20
70593;DHT22;58294;42.988;20.338;2022-12-10T10:46:14;409.70;2355.20
70593;DHT22;58294;42.988;20.338;2022-12-10T10:48:40;409.70;2355.20
70593;DHT22;58294;42.988;20.338;2022-12-10T10:53:48;409.80;2355.20
70593;DHT22;58294;42.988;20.338;2022-12-10T10:56:18;409.80;2355.20
70593;DHT22;58294;42.988;20.338;2022-12-10T10:59:07;409.80;2355.20
70593;DHT22;58294;42.988;20.338;2022-12-10T11:02:09;409.80;2355.20
70593;DHT22;58294;42.988;20.338;2022-12-10T11:04:55;409.80;2355.20
70593;DHT22;58294;42.988;20.338;2022-12-10T11:07:36;409.80;2355.20
70593;DHT22;58294;42.988;20.338;2022-12-10T11:10:20;409.80;2355.20
70593;DHT22;58294;42.988;20.338;2022-12-10T11:15:41;409.80;2355.20
70593;DHT22;58294;42.988;20.338;2022-12-10T11:21:28;409.80;2355.20
70593;DHT22;58294;42.988;20.338;2022-12-10T11:23:55;409.80;2355.20
70593;DHT22;58294;42.988;20.338;2022-12-10T11:37:55;409.80;2355.20
70593;DHT22;58294;42.988;20.338;2022-12-10T11:46:50;409.90;2355.20
70593;DHT22;58294;42.988;20.338;2022-12-10T11:49:38;409.90;2355.20
70593;DHT22;58294;42.988;20.338;2022-12-10T11:54:44;409.90;2355.20
70593;DHT22;58294;42.988;20.338;2022-12-10T11:57:34;409.90;2355.20
70593;DHT22;58294;42.988;20.338;2022-12-10T12:00:21;410.00;2355.20
70593;DHT22;58294;42.988;20.338;2022-12-10T12:03:06;410.00;2355.20
70593;DHT22;58294;42.988;20.338;2022-12-10T12:14:35;410.40;2355.20
70593;DHT22;58294;42.988;20.338;2022-12-10T12:27:53;435.40;2355.20
70593;DHT22;58294;42.988;20.338;2022-12-10T12:30:22;435.40;2355.20
70593;DHT22;58294;42.988;20.338;2022-12-10T12:33:06;435.30;2355.20
70593;DHT22;58294;42.988;20.338;2022-12-10T12:40:43;410.50;2355.20
70593;DHT22;58294;42.988;20.338;2022-12-10T12:43:19;410.50;2355.20
70593;DHT22;58294;42.988;20.338;2022-12-10T12:45:48;410.50;2355.20
70593;DHT22;58294;42.988;20.338;2022-12-10T14:01:03;410.10;2355.20
70593;DHT22;58294;42.988;20.338;2022-12-10T14:06:51;409.90;2355.20
70593;DHT22;58294;42.988;20.338;2022-12-10T14:09:30;409.80;2355.20
70593;DHT22;58294;42.988;20.338;2022-12-10T14:14:46;409.80;2355.20
70593;DHT22;58294;42.988;20.338;2022-12-10T14:17:19;409.80;2355.20
70593;DHT22;58294;42.988;20.338;2022-12-10T14:19:48;409.80;2355.20
70593;DHT22;58294;42.988;20.338;2022-12-10T14:22:18;409.80;2355.20
70593;DHT22;58294;42.988;20.338;2022-12-10T14:24:49;409.80;2355.20
70593;DHT22;58294;42.988;20.338;2022-12-10T14:27:23;409.80;2355.20
70593;DHT22;58294;42.988;20.338;2022-12-10T14:29:52;409.70;2355.20
70593;DHT22;58294;42.988;20.338;2022-12-10T14:32:28;409.80;2355.20
70593;DHT22;58294;42.988;20.338;2022-12-10T14:34:57;409.80;2355.20
70593;DHT22;58294;42.988;20.338;2022-12-10T14:37:26;409.80;2355.20
70593;DHT22;58294;42.988;20.338;2022-12-10T14:39:53;409.80;2355.20
70593;DHT22;58294;42.988;20.338;2022-12-10T14:42:19;409.80;2355.20
70593;DHT22;58294;42.988;20.338;2022-12-10T14:44:46;409.80;2355.20
70593;DHT22;58294;42.988;20.338;2022-12-10T14:47:20;409.80;2355.20
70593;DHT22;58294;42.988;20.338;2022-12-10T14:49:51;409.80;2355.20
70593;DHT22;58294;42.988;20.338;2022-12-10T14:52:24;409.90;2355.20
70593;DHT22;58294;42.988;20.338;2022-12-10T14:54:51;409.80;2355.20
70593;DHT22;58294;42.988;20.338;2022-12-10T14:57:25;409.80;2355.20
70593;DHT22;58294;42.988;20.338;2022-12-10T15:02:27;409.80;2355.20
70593;DHT22;58294;42.988;20.338;2022-12-10T15:04:54;409.80;2355.20
70593;DHT22;58294;42.988;20.338;2022-12-10T15:07:23;409.80;2355.20
70593;DHT22;58294;42.988;20.338;2022-12-10T15:09:50;409.80;2355.20
70593;DHT22;58294;42.988;20.338;2022-12-10T15:12:27;409.70;2355.20
70593;DHT22;58294;42.988;20.338;2022-12-10T15:14:56;409.70;2355.20
70593;DHT22;58294;42.988;20.338;2022-12-10T15:17:55;409.70;2355.20
70593;DHT22;58294;42.988;20.338;2022-12-10T15:20:26;409.70;2355.20
70593;DHT22;58294;42.988;20.338;2022-12-10T15:22:53;409.60;2355.20
70593;DHT22;58294;42.988;20.338;2022-12-10T15:25:23;384.90;2329.60
70593;DHT22;58294;42.988;20.338;2022-12-10T15:27:54;384.90;2329.60
70593;DHT22;58294;42.988;20.338;2022-12-10T15:30:32;384.90;2329.60
70593;DHT22;58294;42.988;20.338;2022-12-10T15:32:58;384.90;2329.60
70593;DHT22;58294;42.988;20.338;2022-12-10T15:35:24;384.80;2329.60
70593;DHT22;58294;42.988;20.338;2022-12-10T15:37:50;384.90;2329.60
70593;DHT22;58294;42.988;20.338;2022-12-10T15:40:29;384.90;2329.60
70593;DHT22;58294;42.988;20.338;2022-12-10T15:43:10;384.80;2329.60
70593;DHT22;58294;42.988;20.338;2022-12-10T15:45:39;384.80;2329.60
70593;DHT22;58294;42.988;20.338;2022-12-10T15:48:12;384.80;2329.60
70593;DHT22;58294;42.988;20.338;2022-12-10T15:50:40;384.90;2329.60
70593;DHT22;58294;42.988;20.338;2022-12-10T15:53:17;384.80;2329.60
70593;DHT22;58294;42.988;20.338;2022-12-10T15:55:47;384.80;2329.60
70593;DHT22;58294;42.988;20.338;2022-12-10T15:58:14;384.80;2329.60
70593;DHT22;58294;42.988;20.338;2022-12-10T16:00:40;384.70;2329.60
70593;DHT22;58294;42.988;20.338;2022-12-10T16:03:15;384.60;2329.60
70593;DHT22;58294;42.988;20.338;2022-12-10T16:05:41;384.70;2329.60
70593;DHT22;58294;42.988;20.338;2022-12-10T16:10:43;384.60;2329.60
70593;DHT22;58294;42.988;20.338;2022-12-10T16:13:17;384.60;2329.60
70593;DHT22;58294;42.988;20.338;2022-12-10T16:15:54;384.50;2329.60
70593;DHT22;58294;42.988;20.338;2022-12-10T16:18:23;384.50;2329.60
70593;DHT22;58294;42.988;20.338;2022-12-10T16:20:49;384.50;2329.60
70593;DHT22;58294;42.988;20.338;2022-12-10T16:23:15;384.50;2329.60
70593;DHT22;58294;42.988;20.338;2022-12-10T16:25:42;384.50;2329.60
70593;DHT22;58294;42.988;20.338;2022-12-10T16:28:15;384.40;2329.60
70593;DHT22;58294;42.988;20.338;2022-12-10T16:40:32;384.60;2329.60
70593;DHT22;58294;42.988;20.338;2022-12-10T16:42:57;384.40;2329.60
70593;DHT22;58294;42.988;20.338;2022-12-10T16:45:37;384.40;2329.60
70593;DHT22;58294;42.988;20.338;2022-12-10T16:48:04;384.40;2329.60
70593;DHT22;58294;42.988;20.338;2022-12-10T16:50:30;384.40;2329.60
70593;DHT22;58294;42.988;20.338;2022-12-10T16:52:57;384.30;2329.60
70593;DHT22;58294;42.988;20.338;2022-12-10T16:55:26;384.30;2329.60
70593;DHT22;58294;42.988;20.338;2022-12-10T16:57:52;384.30;2329.60
70593;DHT22;58294;42.988;20.338;2022-12-10T17:00:23;384.30;2329.60
70593;DHT22;58294;42.988;20.338;2022-12-10T17:02:50;384.30;2329.60
70593;DHT22;58294;42.988;20.338;2022-12-10T17:05:35;384.30;2329.60
70593;DHT22;58294;42.988;20.338;2022-12-10T17:08:02;384.40;2329.60
70593;DHT22;58294;42.988;20.338;2022-12-10T17:10:28;384.40;2329.60
70593;DHT22;58294;42.988;20.338;2022-12-10T17:13:14;384.40;2329.60
70593;DHT22;58294;42.988;20.338;2022-12-10T17:15:41;384.30;2329.60
70593;DHT22;58294;42.988;20.338;2022-12-10T17:18:14;384.30;2329.60
70593;DHT22;58294;42.988;20.338;2022-12-10T17:20:41;384.30;2329.60
70593;DHT22;58294;42.988;20.338;2022-12-10T17:23:07;384.30;2329.60
70593;DHT22;58294;42.988;20.338;2022-12-10T17:25:32;384.20;2329.60
70593;DHT22;58294;42.988;20.338;2022-12-10T17:27:58;384.20;2329.60
70593;DHT22;58294;42.988;20.338;2022-12-10T17:30:24;384.20;2329.60
70593;DHT22;58294;42.988;20.338;2022-12-10T17:32:50;384.20;2329.60
70593;DHT22;58294;42.988;20.338;2022-12-10T17:35:18;384.10;2329.60
70593;DHT22;58294;42.988;20.338;2022-12-10T17:37:44;384.10;2329.60
70593;DHT22;58294;42.988;20.338;2022-12-10T17:40:18;384.10;2329.60
70593;DHT22;58294;42.988;20.338;2022-12-10T17:42:45;384.20;2329.60
70593;DHT22;58294;42.988;20.338;2022-12-10T17:45:16;384.10;2329.60
70593;DHT22;58294;42.988;20.338;2022-12-10T17:47:43;384.00;2329.60
70593;DHT22;58294;42.988;20.338;2022-12-10T17:50:30;359.30;2329.60
70593;DHT22;58294;42.988;20.338;2022-12-10T17:53:01;384.00;2329.60
70593;DHT22;58294;42.988;20.338;2022-12-10T17:55:28;359.30;2329.60
70593;DHT22;58294;42.988;20.338;2022-12-10T17:57:55;359.30;2329.60